Portada
METAR-TAF:

METAR-TAF

Aeropuertos :

Aeropuerto de Granada

Granada, España

latitud: 37-11N, longitud: 003-47W, altitud: 567 m

Observación

El informe se hizo hace 31 minutos, a las 03:30 UTC
Viento calma
Temperatura 12°C
Humedad 100%
Presión 1012 hPa
Visibilidad: 2800 m
lluvia ligera, neblina

METAR: LEGR 160330Z AUTO 00000KT 2800 -RA BR VV008 12/12 Q1012

Hora: 06:01 (04:01 UTC)

Pronóstico

El informe se hizo hace 2 horas y 1 minutos, a las 02:00 UTC
Pronóstico válido del 16 a las 03 UTC al 17 a las 03 UTC
Viento 3 kt con dirección variable
Visibilidad 10 km o más
Escasas nubes a una altura de 1500 ft
Nubes dispersas a una altura de 4000 ft
Probabilidad 40% :
Temporalmente
del 16 a las 03 UTC al 16 a las 05 UTC
Visibilidad: 4000 m
Cielo nuboso a una altura de 1400 ft
lluvia

TAF: LEGR 160200Z 1603/1703 VRB03KT 9999 FEW015 SCT040 TX23/1615Z TN10/1605Z PROB40 TEMPO 1603/1605 4000 RA BKN014

Observaciones y pronósticos meteorológicos de más de 4000 aeropuertos (mensajes METAR y TAF).

Los puntos amarillos y rojos representan las estaciones disponibles.

Ponga el ratón en el punto deseado para ver el nombre de la estación.

Haga clic para ver las observaciones y los pronósticos meteorológicos.

Para cambiar el mapa : haga clic en los botones verdes con una cruz de color negro para hacer un zoom, en el botón verde con un guión para alejar o en las flechas verdes para mapas adyacentes.


METAR-TAF: